sensor_id;sensor_type;location;lat;lon;timestamp;temperature;humidity
21214;DHT22;10764;50.850;2.904;2023-07-29T00:01:33;23.00;59.50
21214;DHT22;10764;50.850;2.904;2023-07-29T00:04:00;23.20;59.60
21214;DHT22;10764;50.850;2.904;2023-07-29T00:06:27;23.50;59.80
21214;DHT22;10764;50.850;2.904;2023-07-29T00:08:54;23.20;59.70
21214;DHT22;10764;50.850;2.904;2023-07-29T00:11:21;23.30;59.80
21214;DHT22;10764;50.850;2.904;2023-07-29T00:13:48;23.70;60.10
21214;DHT22;10764;50.850;2.904;2023-07-29T00:16:16;23.30;59.80
21214;DHT22;10764;50.850;2.904;2023-07-29T00:18:44;23.40;60.20
21214;DHT22;10764;50.850;2.904;2023-07-29T00:21:11;23.30;59.90
21214;DHT22;10764;50.850;2.904;2023-07-29T00:23:38;23.40;60.00
21214;DHT22;10764;50.850;2.904;2023-07-29T00:26:04;23.60;60.40
21214;DHT22;10764;50.850;2.904;2023-07-29T00:28:32;23.50;60.10
21214;DHT22;10764;50.850;2.904;2023-07-29T00:30:59;23.20;59.90
21214;DHT22;10764;50.850;2.904;2023-07-29T00:33:26;23.40;60.10
21214;DHT22;10764;50.850;2.904;2023-07-29T00:35:53;23.20;60.30
21214;DHT22;10764;50.850;2.904;2023-07-29T00:38:20;23.30;60.20
21214;DHT22;10764;50.850;2.904;2023-07-29T00:40:46;23.10;60.10
21214;DHT22;10764;50.850;2.904;2023-07-29T00:43:14;23.30;60.20
21214;DHT22;10764;50.850;2.904;2023-07-29T00:45:42;23.30;60.40
21214;DHT22;10764;50.850;2.904;2023-07-29T00:48:09;23.50;60.30
21214;DHT22;10764;50.850;2.904;2023-07-29T00:50:37;23.50;60.50
21214;DHT22;10764;50.850;2.904;2023-07-29T00:53:04;23.10;60.30
21214;DHT22;10764;50.850;2.904;2023-07-29T00:55:31;23.80;60.90
21214;DHT22;10764;50.850;2.904;2023-07-29T00:57:58;23.20;60.40
21214;DHT22;10764;50.850;2.904;2023-07-29T01:00:25;23.70;60.60
21214;DHT22;10764;50.850;2.904;2023-07-29T01:02:52;23.40;60.50
21214;DHT22;10764;50.850;2.904;2023-07-29T01:05:21;23.50;60.60
21214;DHT22;10764;50.850;2.904;2023-07-29T01:13:45;23.50;60.90
21214;DHT22;10764;50.850;2.904;2023-07-29T01:16:33;23.50;60.90
21214;DHT22;10764;50.850;2.904;2023-07-29T01:19:05;23.30;61.70
21214;DHT22;10764;50.850;2.904;2023-07-29T01:21:35;23.10;60.60
21214;DHT22;10764;50.850;2.904;2023-07-29T01:24:02;23.20;60.70
21214;DHT22;10764;50.850;2.904;2023-07-29T01:26:30;23.30;60.80
21214;DHT22;10764;50.850;2.904;2023-07-29T01:28:57;23.20;60.90
21214;DHT22;10764;50.850;2.904;2023-07-29T01:31:32;23.30;60.90
21214;DHT22;10764;50.850;2.904;2023-07-29T01:37:09;23.10;60.10
21214;DHT22;10764;50.850;2.904;2023-07-29T01:39:39;23.10;61.00
21214;DHT22;10764;50.850;2.904;2023-07-29T01:42:07;24.20;61.50
21214;DHT22;10764;50.850;2.904;2023-07-29T01:44:34;23.40;61.30
21214;DHT22;10764;50.850;2.904;2023-07-29T01:47:02;23.40;61.10
21214;DHT22;10764;50.850;2.904;2023-07-29T01:49:29;22.90;61.10
21214;DHT22;10764;50.850;2.904;2023-07-29T01:51:56;23.80;61.50
21214;DHT22;10764;50.850;2.904;2023-07-29T01:54:23;23.00;61.10
21214;DHT22;10764;50.850;2.904;2023-07-29T01:56:50;23.40;61.30
21214;DHT22;10764;50.850;2.904;2023-07-29T01:59:17;23.20;61.30
21214;DHT22;10764;50.850;2.904;2023-07-29T02:01:44;22.80;60.80
21214;DHT22;10764;50.850;2.904;2023-07-29T02:04:13;24.50;61.90
21214;DHT22;10764;50.850;2.904;2023-07-29T02:06:40;24.00;61.70
21214;DHT22;10764;50.850;2.904;2023-07-29T02:09:06;23.70;61.50
21214;DHT22;10764;50.850;2.904;2023-07-29T02:11:33;23.90;61.50
21214;DHT22;10764;50.850;2.904;2023-07-29T02:14:00;23.30;61.20
21214;DHT22;10764;50.850;2.904;2023-07-29T02:16:27;23.10;61.00
21214;DHT22;10764;50.850;2.904;2023-07-29T02:18:54;23.60;61.50
21214;DHT22;10764;50.850;2.904;2023-07-29T02:21:22;23.10;61.00
21214;DHT22;10764;50.850;2.904;2023-07-29T02:23:49;22.90;61.10
21214;DHT22;10764;50.850;2.904;2023-07-29T02:26:17;23.40;62.00
21214;DHT22;10764;50.850;2.904;2023-07-29T02:28:44;23.50;61.50
21214;DHT22;10764;50.850;2.904;2023-07-29T02:31:22;23.50;61.70
21214;DHT22;10764;50.850;2.904;2023-07-29T02:33:50;23.40;61.30
21214;DHT22;10764;50.850;2.904;2023-07-29T02:36:17;23.50;61.40
21214;DHT22;10764;50.850;2.904;2023-07-29T02:38:44;23.20;61.50
21214;DHT22;10764;50.850;2.904;2023-07-29T02:41:11;23.10;61.20
21214;DHT22;10764;50.850;2.904;2023-07-29T02:43:43;23.50;60.90
21214;DHT22;10764;50.850;2.904;2023-07-29T02:46:10;23.40;61.80
21214;DHT22;10764;50.850;2.904;2023-07-29T02:48:37;23.30;61.50
21214;DHT22;10764;50.850;2.904;2023-07-29T02:51:04;23.70;61.90
21214;DHT22;10764;50.850;2.904;2023-07-29T02:53:30;22.90;61.30
21214;DHT22;10764;50.850;2.904;2023-07-29T02:55:57;23.40;61.60
21214;DHT22;10764;50.850;2.904;2023-07-29T02:58:24;23.40;62.50
21214;DHT22;10764;50.850;2.904;2023-07-29T03:00:52;23.30;61.50
21214;DHT22;10764;50.850;2.904;2023-07-29T03:03:19;23.30;61.40
21214;DHT22;10764;50.850;2.904;2023-07-29T03:05:46;23.40;61.60
21214;DHT22;10764;50.850;2.904;2023-07-29T03:08:14;23.30;61.20
21214;DHT22;10764;50.850;2.904;2023-07-29T03:10:40;24.20;61.90
21214;DHT22;10764;50.850;2.904;2023-07-29T03:13:08;23.50;61.40
21214;DHT22;10764;50.850;2.904;2023-07-29T03:15:35;23.30;61.50
21214;DHT22;10764;50.850;2.904;2023-07-29T03:18:02;23.80;62.00
21214;DHT22;10764;50.850;2.904;2023-07-29T03:20:29;23.40;61.70
21214;DHT22;10764;50.850;2.904;2023-07-29T03:22:55;23.50;61.70
21214;DHT22;10764;50.850;2.904;2023-07-29T03:25:22;24.40;62.10
21214;DHT22;10764;50.850;2.904;2023-07-29T03:27:49;23.40;61.70
21214;DHT22;10764;50.850;2.904;2023-07-29T03:30:20;23.30;61.60
21214;DHT22;10764;50.850;2.904;2023-07-29T03:32:48;23.00;61.40
21214;DHT22;10764;50.850;2.904;2023-07-29T03:35:15;23.20;61.40
21214;DHT22;10764;50.850;2.904;2023-07-29T03:37:42;24.00;61.80
21214;DHT22;10764;50.850;2.904;2023-07-29T03:40:09;23.20;61.50
21214;DHT22;10764;50.850;2.904;2023-07-29T03:42:36;23.30;61.60
21214;DHT22;10764;50.850;2.904;2023-07-29T03:45:03;23.30;61.40
21214;DHT22;10764;50.850;2.904;2023-07-29T03:47:30;23.30;61.40
21214;DHT22;10764;50.850;2.904;2023-07-29T03:49:58;23.30;61.40
21214;DHT22;10764;50.850;2.904;2023-07-29T03:52:25;23.60;61.70
21214;DHT22;10764;50.850;2.904;2023-07-29T03:54:51;23.50;61.60
21214;DHT22;10764;50.850;2.904;2023-07-29T03:57:18;23.60;61.70
21214;DHT22;10764;50.850;2.904;2023-07-29T03:59:45;24.30;62.30
21214;DHT22;10764;50.850;2.904;2023-07-29T04:02:12;23.30;61.50
21214;DHT22;10764;50.850;2.904;2023-07-29T04:04:39;23.40;61.60
21214;DHT22;10764;50.850;2.904;2023-07-29T04:07:07;23.10;61.50
21214;DHT22;10764;50.850;2.904;2023-07-29T04:09:33;23.20;61.50
21214;DHT22;10764;50.850;2.904;2023-07-29T04:12:01;23.70;62.00
21214;DHT22;10764;50.850;2.904;2023-07-29T04:14:28;23.40;61.60
21214;DHT22;10764;50.850;2.904;2023-07-29T04:16:54;23.30;61.80
21214;DHT22;10764;50.850;2.904;2023-07-29T04:19:22;23.30;61.50
21214;DHT22;10764;50.850;2.904;2023-07-29T04:21:48;23.70;61.90
21214;DHT22;10764;50.850;2.904;2023-07-29T04:24:17;23.50;61.60
21214;DHT22;10764;50.850;2.904;2023-07-29T04:26:44;23.70;61.70
21214;DHT22;10764;50.850;2.904;2023-07-29T04:29:11;23.30;61.40
21214;DHT22;10764;50.850;2.904;2023-07-29T04:31:38;23.40;62.40
21214;DHT22;10764;50.850;2.904;2023-07-29T04:34:05;23.90;62.00
21214;DHT22;10764;50.850;2.904;2023-07-29T04:36:32;23.40;61.50
21214;DHT22;10764;50.850;2.904;2023-07-29T04:38:59;23.70;61.80
21214;DHT22;10764;50.850;2.904;2023-07-29T04:41:26;23.10;61.20
21214;DHT22;10764;50.850;2.904;2023-07-29T04:43:54;23.60;61.90
21214;DHT22;10764;50.850;2.904;2023-07-29T04:46:21;23.60;61.50
21214;DHT22;10764;50.850;2.904;2023-07-29T04:48:48;23.20;61.50
21214;DHT22;10764;50.850;2.904;2023-07-29T04:51:14;23.50;61.50
21214;DHT22;10764;50.850;2.904;2023-07-29T04:53:41;23.40;61.60
21214;DHT22;10764;50.850;2.904;2023-07-29T04:56:08;24.00;62.00
21214;DHT22;10764;50.850;2.904;2023-07-29T04:58:35;23.50;61.50
21214;DHT22;10764;50.850;2.904;2023-07-29T05:01:02;23.60;61.60
21214;DHT22;10764;50.850;2.904;2023-07-29T05:03:30;23.60;61.30
21214;DHT22;10764;50.850;2.904;2023-07-29T05:05:58;23.40;61.30
21214;DHT22;10764;50.850;2.904;2023-07-29T05:08:27;23.50;61.30
21214;DHT22;10764;50.850;2.904;2023-07-29T05:10:54;24.40;62.00
21214;DHT22;10764;50.850;2.904;2023-07-29T05:13:22;23.80;61.50
21214;DHT22;10764;50.850;2.904;2023-07-29T05:15:49;23.60;61.50
21214;DHT22;10764;50.850;2.904;2023-07-29T05:18:17;23.40;61.30
21214;DHT22;10764;50.850;2.904;2023-07-29T05:20:44;23.50;61.40
21214;DHT22;10764;50.850;2.904;2023-07-29T05:23:12;24.00;61.60
21214;DHT22;10764;50.850;2.904;2023-07-29T05:25:38;23.40;61.70
21214;DHT22;10764;50.850;2.904;2023-07-29T05:28:05;23.70;61.80
21214;DHT22;10764;50.850;2.904;2023-07-29T05:30:33;23.50;61.50
21214;DHT22;10764;50.850;2.904;2023-07-29T05:33:09;23.40;61.50
21214;DHT22;10764;50.850;2.904;2023-07-29T05:35:37;23.90;61.90
21214;DHT22;10764;50.850;2.904;2023-07-29T05:38:05;23.70;62.50
21214;DHT22;10764;50.850;2.904;2023-07-29T05:40:34;23.40;61.70
21214;DHT22;10764;50.850;2.904;2023-07-29T05:43:01;23.30;61.30
21214;DHT22;10764;50.850;2.904;2023-07-29T05:45:29;24.10;61.80
21214;DHT22;10764;50.850;2.904;2023-07-29T05:47:57;24.40;61.90
21214;DHT22;10764;50.850;2.904;2023-07-29T05:50:24;23.40;61.10
21214;DHT22;10764;50.850;2.904;2023-07-29T05:52:51;23.60;61.10
21214;DHT22;10764;50.850;2.904;2023-07-29T05:55:18;24.10;61.30
21214;DHT22;10764;50.850;2.904;2023-07-29T05:57:45;23.80;60.90
21214;DHT22;10764;50.850;2.904;2023-07-29T06:00:12;23.50;60.70
21214;DHT22;10764;50.850;2.904;2023-07-29T06:02:39;23.60;60.90
21214;DHT22;10764;50.850;2.904;2023-07-29T06:05:11;24.50;61.30
21214;DHT22;10764;50.850;2.904;2023-07-29T06:07:38;23.70;60.80
21214;DHT22;10764;50.850;2.904;2023-07-29T06:10:05;23.80;61.00
21214;DHT22;10764;50.850;2.904;2023-07-29T06:12:32;23.20;60.60
21214;DHT22;10764;50.850;2.904;2023-07-29T06:14:59;24.50;61.60
21214;DHT22;10764;50.850;2.904;2023-07-29T06:17:25;23.40;60.60
21214;DHT22;10764;50.850;2.904;2023-07-29T06:19:52;23.40;60.50
21214;DHT22;10764;50.850;2.904;2023-07-29T06:22:19;23.60;60.70
21214;DHT22;10764;50.850;2.904;2023-07-29T06:24:46;23.50;62.00
21214;DHT22;10764;50.850;2.904;2023-07-29T06:27:13;23.40;63.60
21214;DHT22;10764;50.850;2.904;2023-07-29T06:29:40;23.90;64.00
21214;DHT22;10764;50.850;2.904;2023-07-29T06:32:07;23.90;64.20
21214;DHT22;10764;50.850;2.904;2023-07-29T06:34:33;23.60;63.70
21214;DHT22;10764;50.850;2.904;2023-07-29T06:37:00;23.70;63.60
21214;DHT22;10764;50.850;2.904;2023-07-29T06:39:27;23.70;63.20
21214;DHT22;10764;50.850;2.904;2023-07-29T06:41:54;23.80;63.20
21214;DHT22;10764;50.850;2.904;2023-07-29T06:44:21;23.60;62.70
21214;DHT22;10764;50.850;2.904;2023-07-29T06:46:47;23.80;62.70
21214;DHT22;10764;50.850;2.904;2023-07-29T06:49:14;23.50;62.40
21214;DHT22;10764;50.850;2.904;2023-07-29T06:51:41;23.80;62.40
21214;DHT22;10764;50.850;2.904;2023-07-29T06:54:08;23.60;61.90
21214;DHT22;10764;50.850;2.904;2023-07-29T06:56:35;23.30;61.60
21214;DHT22;10764;50.850;2.904;2023-07-29T06:59:02;24.80;62.50
21214;DHT22;10764;50.850;2.904;2023-07-29T07:01:28;24.10;61.80
21214;DHT22;10764;50.850;2.904;2023-07-29T07:03:55;23.70;61.40
21214;DHT22;10764;50.850;2.904;2023-07-29T07:06:25;23.80;61.40
21214;DHT22;10764;50.850;2.904;2023-07-29T07:08:52;24.50;61.90
21214;DHT22;10764;50.850;2.904;2023-07-29T07:11:19;23.60;61.10
21214;DHT22;10764;50.850;2.904;2023-07-29T07:13:45;23.80;61.30
21214;DHT22;10764;50.850;2.904;2023-07-29T07:16:12;24.10;61.50
21214;DHT22;10764;50.850;2.904;2023-07-29T07:18:39;23.90;61.30
21214;DHT22;10764;50.850;2.904;2023-07-29T07:21:06;23.80;61.10
21214;DHT22;10764;50.850;2.904;2023-07-29T07:23:33;24.70;61.80
21214;DHT22;10764;50.850;2.904;2023-07-29T07:26:00;23.80;61.20
21214;DHT22;10764;50.850;2.904;2023-07-29T07:28:27;23.80;61.10
21214;DHT22;10764;50.850;2.904;2023-07-29T07:30:53;23.70;61.30
21214;DHT22;10764;50.850;2.904;2023-07-29T07:33:22;24.10;61.20
21214;DHT22;10764;50.850;2.904;2023-07-29T07:35:49;24.40;61.70
21214;DHT22;10764;50.850;2.904;2023-07-29T07:38:16;23.70;60.90
21214;DHT22;10764;50.850;2.904;2023-07-29T07:40:51;23.80;60.90
21214;DHT22;10764;50.850;2.904;2023-07-29T07:43:18;23.90;61.00
21214;DHT22;10764;50.850;2.904;2023-07-29T07:45:45;23.90;60.90
21214;DHT22;10764;50.850;2.904;2023-07-29T07:48:12;23.90;61.00
21214;DHT22;10764;50.850;2.904;2023-07-29T07:50:40;23.80;60.60
21214;DHT22;10764;50.850;2.904;2023-07-29T07:53:06;23.90;60.80
21214;DHT22;10764;50.850;2.904;2023-07-29T07:55:33;23.60;60.40
21214;DHT22;10764;50.850;2.904;2023-07-29T07:58:00;23.90;60.60
21214;DHT22;10764;50.850;2.904;2023-07-29T08:00:26;23.70;60.60
21214;DHT22;10764;50.850;2.904;2023-07-29T08:02:53;24.00;60.50
21214;DHT22;10764;50.850;2.904;2023-07-29T08:05:20;24.50;60.80
21214;DHT22;10764;50.850;2.904;2023-07-29T08:07:47;23.80;60.40
21214;DHT22;10764;50.850;2.904;2023-07-29T08:10:14;23.30;61.50
21214;DHT22;10764;50.850;2.904;2023-07-29T08:12:41;24.10;61.20
21214;DHT22;10764;50.850;2.904;2023-07-29T08:15:08;24.50;62.20
21214;DHT22;10764;50.850;2.904;2023-07-29T08:17:35;23.90;62.40
21214;DHT22;10764;50.850;2.904;2023-07-29T08:20:02;23.80;61.60
21214;DHT22;10764;50.850;2.904;2023-07-29T08:22:29;23.60;61.80
21214;DHT22;10764;50.850;2.904;2023-07-29T08:24:56;24.00;61.20
21214;DHT22;10764;50.850;2.904;2023-07-29T08:27:23;23.50;62.30
21214;DHT22;10764;50.850;2.904;2023-07-29T08:29:50;23.60;61.10
21214;DHT22;10764;50.850;2.904;2023-07-29T08:32:17;23.00;62.00
21214;DHT22;10764;50.850;2.904;2023-07-29T08:34:44;23.50;61.20
21214;DHT22;10764;50.850;2.904;2023-07-29T08:37:11;23.80;63.50
21214;DHT22;10764;50.850;2.904;2023-07-29T08:39:38;24.30;62.20
21214;DHT22;10764;50.850;2.904;2023-07-29T08:42:07;23.60;61.70
21214;DHT22;10764;50.850;2.904;2023-07-29T08:44:43;23.60;62.00
21214;DHT22;10764;50.850;2.904;2023-07-29T08:47:11;23.60;64.10
21214;DHT22;10764;50.850;2.904;2023-07-29T08:49:40;24.30;62.10
21214;DHT22;10764;50.850;2.904;2023-07-29T08:52:09;23.80;63.20
21214;DHT22;10764;50.850;2.904;2023-07-29T08:54:36;23.70;62.30
21214;DHT22;10764;50.850;2.904;2023-07-29T08:57:03;23.80;62.00
21214;DHT22;10764;50.850;2.904;2023-07-29T08:59:31;23.60;61.90
21214;DHT22;10764;50.850;2.904;2023-07-29T09:01:58;23.60;62.00
21214;DHT22;10764;50.850;2.904;2023-07-29T09:04:25;23.60;62.00
21214;DHT22;10764;50.850;2.904;2023-07-29T09:06:53;23.70;62.20
21214;DHT22;10764;50.850;2.904;2023-07-29T09:09:22;23.60;61.90
21214;DHT22;10764;50.850;2.904;2023-07-29T09:11:49;24.10;62.40
21214;DHT22;10764;50.850;2.904;2023-07-29T09:14:17;23.60;63.20
21214;DHT22;10764;50.850;2.904;2023-07-29T09:16:44;23.60;63.40
21214;DHT22;10764;50.850;2.904;2023-07-29T09:19:11;24.00;63.20
21214;DHT22;10764;50.850;2.904;2023-07-29T09:21:39;23.50;64.90
21214;DHT22;10764;50.850;2.904;2023-07-29T09:24:07;23.80;63.00
21214;DHT22;10764;50.850;2.904;2023-07-29T09:26:35;23.50;63.10
21214;DHT22;10764;50.850;2.904;2023-07-29T09:29:04;23.70;62.70
21214;DHT22;10764;50.850;2.904;2023-07-29T09:31:31;23.50;62.50
21214;DHT22;10764;50.850;2.904;2023-07-29T09:33:59;23.70;62.60
21214;DHT22;10764;50.850;2.904;2023-07-29T09:36:27;23.90;62.70
21214;DHT22;10764;50.850;2.904;2023-07-29T09:38:55;23.50;62.60
21214;DHT22;10764;50.850;2.904;2023-07-29T09:41:24;23.90;62.80
21214;DHT22;10764;50.850;2.904;2023-07-29T09:43:58;23.80;62.80
21214;DHT22;10764;50.850;2.904;2023-07-29T09:46:32;23.90;62.90
21214;DHT22;10764;50.850;2.904;2023-07-29T09:48:59;23.60;62.40
21214;DHT22;10764;50.850;2.904;2023-07-29T09:51:26;24.50;63.10
21214;DHT22;10764;50.850;2.904;2023-07-29T09:53:53;23.70;62.50
21214;DHT22;10764;50.850;2.904;2023-07-29T09:56:25;24.30;63.00
21214;DHT22;10764;50.850;2.904;2023-07-29T09:58:55;24.50;62.90
21214;DHT22;10764;50.850;2.904;2023-07-29T10:01:22;23.90;62.60
21214;DHT22;10764;50.850;2.904;2023-07-29T10:03:49;24.80;63.40
21214;DHT22;10764;50.850;2.904;2023-07-29T10:06:17;24.00;62.90
21214;DHT22;10764;50.850;2.904;2023-07-29T10:08:48;24.40;63.10
21214;DHT22;10764;50.850;2.904;2023-07-29T10:11:16;23.80;63.80
21214;DHT22;10764;50.850;2.904;2023-07-29T10:13:46;23.80;62.70
21214;DHT22;10764;50.850;2.904;2023-07-29T10:16:32;23.90;62.70
21214;DHT22;10764;50.850;2.904;2023-07-29T10:19:01;24.10;62.80
21214;DHT22;10764;50.850;2.904;2023-07-29T10:21:29;24.10;62.90
21214;DHT22;10764;50.850;2.904;2023-07-29T10:23:58;23.70;62.60
21214;DHT22;10764;50.850;2.904;2023-07-29T10:26:28;24.10;62.80
21214;DHT22;10764;50.850;2.904;2023-07-29T10:28:59;23.80;62.30
21214;DHT22;10764;50.850;2.904;2023-07-29T10:31:32;24.20;62.50
21214;DHT22;10764;50.850;2.904;2023-07-29T10:33:59;23.90;62.30
21214;DHT22;10764;50.850;2.904;2023-07-29T10:36:26;24.10;62.50
21214;DHT22;10764;50.850;2.904;2023-07-29T10:38:53;23.90;62.30
21214;DHT22;10764;50.850;2.904;2023-07-29T10:41:20;24.40;62.60
21214;DHT22;10764;50.850;2.904;2023-07-29T10:43:47;23.90;62.10
21214;DHT22;10764;50.850;2.904;2023-07-29T10:46:15;24.80;62.90
21214;DHT22;10764;50.850;2.904;2023-07-29T10:48:55;24.00;63.30
21214;DHT22;10764;50.850;2.904;2023-07-29T10:51:27;24.00;61.80
21214;DHT22;10764;50.850;2.904;2023-07-29T10:53:58;23.90;61.70
21214;DHT22;10764;50.850;2.904;2023-07-29T10:56:33;23.80;62.10
21214;DHT22;10764;50.850;2.904;2023-07-29T10:59:31;23.90;61.50
21214;DHT22;10764;50.850;2.904;2023-07-29T11:01:59;24.10;61.60
21214;DHT22;10764;50.850;2.904;2023-07-29T11:04:29;24.50;62.40
21214;DHT22;10764;50.850;2.904;2023-07-29T11:12:38;24.10;61.70
21214;DHT22;10764;50.850;2.904;2023-07-29T11:15:12;24.30;61.30
21214;DHT22;10764;50.850;2.904;2023-07-29T11:17:55;24.30;61.70
21214;DHT22;10764;50.850;2.904;2023-07-29T11:20:30;24.40;60.90
21214;DHT22;10764;50.850;2.904;2023-07-29T11:22:59;24.30;60.70
21214;DHT22;10764;50.850;2.904;2023-07-29T11:25:28;24.30;60.90
21214;DHT22;10764;50.850;2.904;2023-07-29T11:27:58;24.30;60.90
21214;DHT22;10764;50.850;2.904;2023-07-29T11:30:25;24.30;60.90
21214;DHT22;10764;50.850;2.904;2023-07-29T11:32:57;24.30;60.90
21214;DHT22;10764;50.850;2.904;2023-07-29T11:35:25;24.60;61.00
21214;DHT22;10764;50.850;2.904;2023-07-29T11:37:54;24.50;60.80
21214;DHT22;10764;50.850;2.904;2023-07-29T11:40:22;24.50;60.70
21214;DHT22;10764;50.850;2.904;2023-07-29T11:42:50;24.30;60.60
21214;DHT22;10764;50.850;2.904;2023-07-29T11:45:19;24.30;60.50
21214;DHT22;10764;50.850;2.904;2023-07-29T11:47:46;25.00;60.90
21214;DHT22;10764;50.850;2.904;2023-07-29T11:50:14;24.30;60.60
21214;DHT22;10764;50.850;2.904;2023-07-29T11:52:45;24.60;60.80
21214;DHT22;10764;50.850;2.904;2023-07-29T11:55:13;24.20;60.60
21214;DHT22;10764;50.850;2.904;2023-07-29T11:57:42;24.10;60.90
21214;DHT22;10764;50.850;2.904;2023-07-29T12:00:11;24.40;61.20
21214;DHT22;10764;50.850;2.904;2023-07-29T12:02:40;24.30;61.10
21214;DHT22;10764;50.850;2.904;2023-07-29T12:05:09;24.10;61.10
21214;DHT22;10764;50.850;2.904;2023-07-29T12:07:39;25.10;61.80
21214;DHT22;10764;50.850;2.904;2023-07-29T12:10:07;23.30;61.60
21214;DHT22;10764;50.850;2.904;2023-07-29T12:12:44;24.20;62.80
21214;DHT22;10764;50.850;2.904;2023-07-29T12:15:12;24.10;60.80
21214;DHT22;10764;50.850;2.904;2023-07-29T12:17:42;24.30;61.60
21214;DHT22;10764;50.850;2.904;2023-07-29T12:20:10;24.80;62.10
21214;DHT22;10764;50.850;2.904;2023-07-29T12:22:37;24.10;61.40
21214;DHT22;10764;50.850;2.904;2023-07-29T12:25:04;24.20;61.50
21214;DHT22;10764;50.850;2.904;2023-07-29T12:27:33;24.70;63.50
21214;DHT22;10764;50.850;2.904;2023-07-29T12:30:01;24.50;64.20
21214;DHT22;10764;50.850;2.904;2023-07-29T12:32:30;24.50;62.20
21214;DHT22;10764;50.850;2.904;2023-07-29T12:34:57;24.40;62.30
21214;DHT22;10764;50.850;2.904;2023-07-29T12:37:31;24.60;62.50
21214;DHT22;10764;50.850;2.904;2023-07-29T12:39:58;24.30;62.50
21214;DHT22;10764;50.850;2.904;2023-07-29T12:42:25;24.10;62.60
21214;DHT22;10764;50.850;2.904;2023-07-29T12:44:52;24.60;62.90
21214;DHT22;10764;50.850;2.904;2023-07-29T12:47:19;24.40;62.90
21214;DHT22;10764;50.850;2.904;2023-07-29T12:49:45;24.10;62.80
21214;DHT22;10764;50.850;2.904;2023-07-29T12:52:12;24.40;63.10
21214;DHT22;10764;50.850;2.904;2023-07-29T12:54:40;24.20;63.10
21214;DHT22;10764;50.850;2.904;2023-07-29T12:57:06;24.30;63.20
21214;DHT22;10764;50.850;2.904;2023-07-29T12:59:33;24.30;63.70
21214;DHT22;10764;50.850;2.904;2023-07-29T13:02:00;24.40;63.50
21214;DHT22;10764;50.850;2.904;2023-07-29T13:04:27;24.30;63.50
21214;DHT22;10764;50.850;2.904;2023-07-29T13:06:53;24.50;63.90
21214;DHT22;10764;50.850;2.904;2023-07-29T13:09:20;24.30;64.00
21214;DHT22;10764;50.850;2.904;2023-07-29T13:11:47;24.10;64.00
21214;DHT22;10764;50.850;2.904;2023-07-29T13:14:14;24.20;64.00
21214;DHT22;10764;50.850;2.904;2023-07-29T13:16:40;24.10;63.80
21214;DHT22;10764;50.850;2.904;2023-07-29T13:19:07;24.70;64.00
21214;DHT22;10764;50.850;2.904;2023-07-29T13:21:34;24.10;63.80
21214;DHT22;10764;50.850;2.904;2023-07-29T13:24:01;24.50;63.90
21214;DHT22;10764;50.850;2.904;2023-07-29T13:26:28;24.30;64.00
21214;DHT22;10764;50.850;2.904;2023-07-29T13:28:54;24.40;63.70
21214;DHT22;10764;50.850;2.904;2023-07-29T13:31:22;24.60;63.80
21214;DHT22;10764;50.850;2.904;2023-07-29T13:33:49;24.80;64.00
21214;DHT22;10764;50.850;2.904;2023-07-29T13:36:16;24.50;63.70
21214;DHT22;10764;50.850;2.904;2023-07-29T13:38:42;24.70;64.10
21214;DHT22;10764;50.850;2.904;2023-07-29T13:41:09;24.20;63.90
21214;DHT22;10764;50.850;2.904;2023-07-29T13:43:36;24.30;64.00
21214;DHT22;10764;50.850;2.904;2023-07-29T13:46:03;24.10;63.30
21214;DHT22;10764;50.850;2.904;2023-07-29T13:48:30;24.70;63.40
21214;DHT22;10764;50.850;2.904;2023-07-29T13:50:57;24.80;63.30
21214;DHT22;10764;50.850;2.904;2023-07-29T13:53:23;25.30;63.60
21214;DHT22;10764;50.850;2.904;2023-07-29T13:55:50;24.10;62.60
21214;DHT22;10764;50.850;2.904;2023-07-29T13:58:17;24.60;62.70
21214;DHT22;10764;50.850;2.904;2023-07-29T14:00:44;24.30;62.30
21214;DHT22;10764;50.850;2.904;2023-07-29T14:03:10;24.20;62.20
21214;DHT22;10764;50.850;2.904;2023-07-29T14:05:37;24.10;61.80
21214;DHT22;10764;50.850;2.904;2023-07-29T14:08:04;24.30;61.70
21214;DHT22;10764;50.850;2.904;2023-07-29T14:10:31;24.70;61.80
21214;DHT22;10764;50.850;2.904;2023-07-29T14:12:57;24.50;61.50
21214;DHT22;10764;50.850;2.904;2023-07-29T14:15:24;25.30;61.80
21214;DHT22;10764;50.850;2.904;2023-07-29T14:17:51;24.50;61.20
21214;DHT22;10764;50.850;2.904;2023-07-29T14:20:18;24.70;60.80
21214;DHT22;10764;50.850;2.904;2023-07-29T14:22:48;24.00;60.50
21214;DHT22;10764;50.850;2.904;2023-07-29T14:25:15;24.70;60.50
21214;DHT22;10764;50.850;2.904;2023-07-29T14:27:42;25.20;60.60
21214;DHT22;10764;50.850;2.904;2023-07-29T14:30:09;24.60;59.90
21214;DHT22;10764;50.850;2.904;2023-07-29T14:32:37;24.60;59.70
21214;DHT22;10764;50.850;2.904;2023-07-29T14:35:04;24.70;59.60
21214;DHT22;10764;50.850;2.904;2023-07-29T14:37:31;24.70;59.30
21214;DHT22;10764;50.850;2.904;2023-07-29T14:39:58;24.70;59.00
21214;DHT22;10764;50.850;2.904;2023-07-29T14:42:26;24.90;59.10
21214;DHT22;10764;50.850;2.904;2023-07-29T14:44:53;24.80;58.60
21214;DHT22;10764;50.850;2.904;2023-07-29T14:47:21;24.80;58.50
21214;DHT22;10764;50.850;2.904;2023-07-29T14:49:48;25.00;60.40
21214;DHT22;10764;50.850;2.904;2023-07-29T14:52:14;24.90;58.90
21214;DHT22;10764;50.850;2.904;2023-07-29T14:54:41;25.20;58.70
21214;DHT22;10764;50.850;2.904;2023-07-29T14:57:10;24.70;58.10
21214;DHT22;10764;50.850;2.904;2023-07-29T14:59:36;25.20;58.30
21214;DHT22;10764;50.850;2.904;2023-07-29T15:02:03;25.10;58.30
21214;DHT22;10764;50.850;2.904;2023-07-29T15:04:30;24.70;57.90
21214;DHT22;10764;50.850;2.904;2023-07-29T15:06:57;24.30;57.50
21214;DHT22;10764;50.850;2.904;2023-07-29T15:09:24;24.90;57.70
21214;DHT22;10764;50.850;2.904;2023-07-29T15:11:51;25.20;57.80
21214;DHT22;10764;50.850;2.904;2023-07-29T15:14:18;24.70;57.50
21214;DHT22;10764;50.850;2.904;2023-07-29T15:16:45;24.70;57.40
21214;DHT22;10764;50.850;2.904;2023-07-29T15:19:12;26.90;60.30
21214;DHT22;10764;50.850;2.904;2023-07-29T15:21:44;25.00;57.60
21214;DHT22;10764;50.850;2.904;2023-07-29T15:24:11;25.10;57.20
21214;DHT22;10764;50.850;2.904;2023-07-29T15:26:38;25.00;57.30
21214;DHT22;10764;50.850;2.904;2023-07-29T15:29:05;24.70;56.90
21214;DHT22;10764;50.850;2.904;2023-07-29T15:31:34;25.10;56.90
21214;DHT22;10764;50.850;2.904;2023-07-29T15:34:01;25.10;57.00
21214;DHT22;10764;50.850;2.904;2023-07-29T15:36:28;25.30;56.80
21214;DHT22;10764;50.850;2.904;2023-07-29T15:38:54;24.90;56.50
21214;DHT22;10764;50.850;2.904;2023-07-29T15:41:21;24.80;56.40
21214;DHT22;10764;50.850;2.904;2023-07-29T15:43:48;24.80;56.20
21214;DHT22;10764;50.850;2.904;2023-07-29T15:46:15;25.60;56.60
21214;DHT22;10764;50.850;2.904;2023-07-29T15:48:42;24.90;56.20